createdAt,value
2023-03-29T00:00:35.916Z,4.00
2023-03-29T00:01:42.098Z,5.22
2023-03-29T00:02:48.582Z,3.70
2023-03-29T00:03:52.011Z,2.95
2023-03-29T00:04:53.697Z,7.75
2023-03-29T00:06:03.244Z,4.93
2023-03-29T00:07:05.035Z,5.80
2023-03-29T00:08:07.507Z,5.82
2023-03-29T00:09:10.176Z,5.65
2023-03-29T00:10:12.279Z,5.25
2023-03-29T00:11:13.872Z,3.50
2023-03-29T00:12:15.528Z,4.90
2023-03-29T00:13:17.126Z,4.75
2023-03-29T00:14:18.706Z,4.55
2023-03-29T00:15:20.649Z,3.95
2023-03-29T00:16:23.124Z,4.80
2023-03-29T00:17:24.826Z,4.10
2023-03-29T00:18:26.578Z,3.60
2023-03-29T00:19:29.031Z,4.82
2023-03-29T00:20:30.799Z,5.97
2023-03-29T00:21:32.467Z,3.88
2023-03-29T00:22:34.203Z,4.32
2023-03-29T00:23:35.791Z,5.30
2023-03-29T00:24:37.470Z,5.00
2023-03-29T00:25:44.846Z,3.47
2023-03-29T00:26:46.465Z,4.47
2023-03-29T00:27:48.143Z,4.97
2023-03-29T00:28:50.126Z,5.07
2023-03-29T00:29:51.787Z,5.38
2023-03-29T00:30:53.576Z,4.47
2023-03-29T00:31:56.081Z,3.80
2023-03-29T00:32:57.796Z,4.63
2023-03-29T00:33:59.470Z,4.90
2023-03-29T00:35:01.166Z,4.07
2023-03-29T00:36:04.501Z,6.53
2023-03-29T00:37:08.834Z,5.18
2023-03-29T00:38:10.821Z,8.52
2023-03-29T00:39:12.434Z,5.93
2023-03-29T00:40:15.764Z,8.83
2023-03-29T00:41:17.409Z,8.02
2023-03-29T00:42:19.020Z,9.75
2023-03-29T00:43:20.719Z,8.45
2023-03-29T00:44:59.581Z,6.28
2023-03-29T00:46:01.246Z,6.07
2023-03-29T00:47:02.945Z,9.77
2023-03-29T00:48:11.361Z,6.55
2023-03-29T00:49:13.632Z,6.30
2023-03-29T00:50:29.825Z,5.45
2023-03-29T00:51:33.071Z,6.82
2023-03-29T00:52:34.824Z,6.40
2023-03-29T00:53:38.553Z,5.38
2023-03-29T00:54:41.173Z,5.00
2023-03-29T00:56:14.177Z,5.00
2023-03-29T00:57:16.220Z,4.25
2023-03-29T00:58:20.449Z,5.85
2023-03-29T00:59:25.524Z,6.00
2023-03-29T01:00:31.841Z,3.75
2023-03-29T01:01:38.304Z,6.05
2023-03-29T01:02:40.736Z,3.97
2023-03-29T01:03:46.574Z,5.18
2023-03-29T01:05:08.526Z,3.60
2023-03-29T01:06:10.121Z,12.20
2023-03-29T01:07:31.210Z,4.25
2023-03-29T01:08:35.943Z,5.30
2023-03-29T01:09:37.910Z,6.00
2023-03-29T01:10:41.807Z,4.45
2023-03-29T01:11:48.875Z,5.25
2023-03-29T01:12:56.963Z,5.15
2023-03-29T01:14:02.679Z,4.97
2023-03-29T01:15:10.347Z,5.05
2023-03-29T01:16:12.014Z,4.78
2023-03-29T01:17:13.634Z,4.53
2023-03-29T01:18:15.287Z,5.45
2023-03-29T01:19:19.065Z,5.18
2023-03-29T01:21:03.474Z,7.75
2023-03-29T01:22:14.813Z,5.88
2023-03-29T01:23:31.628Z,4.40
2023-03-29T01:24:38.276Z,7.25
2023-03-29T01:26:07.179Z,4.97
2023-03-29T01:27:38.500Z,4.15
2023-03-29T01:29:24.653Z,5.00
2023-03-29T01:30:53.141Z,7.28
2023-03-29T01:32:09.000Z,5.30
2023-03-29T01:33:14.142Z,5.07
2023-03-29T01:34:33.387Z,5.10
2023-03-29T01:35:37.393Z,5.03
2023-03-29T01:36:44.916Z,4.90
2023-03-29T01:37:53.207Z,4.55
2023-03-29T01:38:58.782Z,3.97
2023-03-29T01:40:00.697Z,5.53
2023-03-29T01:41:03.907Z,5.28
2023-03-29T01:42:29.965Z,6.97
2023-03-29T01:43:34.840Z,6.65
2023-03-29T01:44:57.642Z,5.90
2023-03-29T01:46:20.992Z,8.52
2023-03-29T01:47:40.923Z,7.83
2023-03-29T01:48:51.010Z,6.53
2023-03-29T01:49:52.576Z,5.22
2023-03-29T01:51:04.592Z,6.35
2023-03-29T01:52:26.910Z,5.53
2023-03-29T01:53:29.750Z,4.50
2023-03-29T01:54:56.911Z,5.40
2023-03-29T01:56:14.575Z,5.82
2023-03-29T01:57:16.301Z,4.28
2023-03-29T01:58:17.965Z,7.00
2023-03-29T01:59:28.497Z,5.38
2023-03-29T02:00:30.116Z,5.80
2023-03-29T02:01:34.946Z,5.65
2023-03-29T02:02:40.413Z,5.33
2023-03-29T02:03:43.013Z,6.35
2023-03-29T02:04:50.141Z,5.55
2023-03-29T02:05:52.605Z,5.65
2023-03-29T02:06:54.425Z,6.18
2023-03-29T02:07:57.545Z,6.65
2023-03-29T02:08:59.272Z,5.70
2023-03-29T02:10:00.971Z,5.72
2023-03-29T02:11:02.818Z,19.35
2023-03-29T02:12:04.716Z,14.15
2023-03-29T02:13:06.380Z,8.55
2023-03-29T02:14:08.089Z,6.40
2023-03-29T02:15:14.354Z,4.90
2023-03-29T02:16:15.992Z,4.85
2023-03-29T02:17:22.435Z,4.13
2023-03-29T02:18:24.792Z,4.40
2023-03-29T02:19:28.025Z,5.40
2023-03-29T02:20:32.032Z,4.87
2023-03-29T02:21:51.852Z,4.22
2023-03-29T02:23:04.639Z,4.70
2023-03-29T02:24:07.557Z,4.30
2023-03-29T02:25:09.534Z,4.60
2023-03-29T02:26:11.198Z,5.25
2023-03-29T02:27:12.803Z,6.13
2023-03-29T02:28:14.561Z,5.22
2023-03-29T02:29:16.364Z,4.57
2023-03-29T02:30:18.817Z,5.25
2023-03-29T02:31:25.039Z,5.80
2023-03-29T02:32:31.127Z,6.40
2023-03-29T02:33:45.567Z,5.70
2023-03-29T02:34:56.532Z,5.25
2023-03-29T02:36:29.548Z,6.13
2023-03-29T02:37:31.218Z,6.63
2023-03-29T02:38:32.850Z,5.60
2023-03-29T02:39:34.743Z,5.75
2023-03-29T02:40:37.649Z,6.75
2023-03-29T02:41:39.384Z,5.90
2023-03-29T02:42:41.588Z,5.63
2023-03-29T02:43:43.397Z,4.75
2023-03-29T02:44:45.160Z,6.95
2023-03-29T02:45:47.177Z,4.72
2023-03-29T02:46:53.676Z,6.32
2023-03-29T02:47:56.971Z,6.95
2023-03-29T02:48:58.714Z,6.05
2023-03-29T02:50:00.455Z,5.88
2023-03-29T02:51:03.767Z,5.25
2023-03-29T02:52:08.997Z,5.95
2023-03-29T02:53:16.317Z,6.05
2023-03-29T02:54:19.595Z,7.13
2023-03-29T02:55:22.743Z,4.85
2023-03-29T02:56:24.363Z,5.47
2023-03-29T02:57:26.928Z,8.75
2023-03-29T02:58:28.972Z,5.78
2023-03-29T02:59:30.595Z,6.78
2023-03-29T03:00:32.380Z,5.40
2023-03-29T03:01:34.000Z,6.28
2023-03-29T03:02:36.337Z,5.07
2023-03-29T03:03:38.348Z,6.38
2023-03-29T03:04:40.147Z,6.28
2023-03-29T03:05:41.872Z,6.65
2023-03-29T03:06:43.478Z,5.95
2023-03-29T03:07:46.206Z,4.32
2023-03-29T03:08:48.430Z,4.78
2023-03-29T03:09:50.183Z,9.68
2023-03-29T03:10:52.593Z,5.60
2023-03-29T03:11:54.177Z,8.50
2023-03-29T03:12:56.089Z,5.78
2023-03-29T03:13:57.741Z,6.03
2023-03-29T03:14:59.642Z,5.25
2023-03-29T03:16:01.344Z,5.47
2023-03-29T03:17:04.742Z,5.20
2023-03-29T03:18:06.649Z,5.53
2023-03-29T03:19:09.247Z,6.80
2023-03-29T03:20:14.485Z,5.55
2023-03-29T03:21:16.087Z,7.07
2023-03-29T03:22:17.688Z,5.40
2023-03-29T03:23:19.303Z,5.30
2023-03-29T03:24:20.938Z,6.47
2023-03-29T03:25:22.585Z,5.13
2023-03-29T03:26:25.017Z,5.22
2023-03-29T03:27:27.073Z,5.47
2023-03-29T03:28:28.693Z,5.47
2023-03-29T03:29:30.366Z,4.32
2023-03-29T03:30:32.018Z,4.60
2023-03-29T03:31:33.732Z,7.30
2023-03-29T03:32:35.939Z,5.88
2023-03-29T03:33:37.574Z,5.38
2023-03-29T03:34:39.238Z,7.60
2023-03-29T03:35:41.020Z,7.15
2023-03-29T03:36:42.701Z,9.80
2023-03-29T03:37:44.316Z,5.57
2023-03-29T03:38:46.252Z,6.32
2023-03-29T03:39:47.939Z,5.75
2023-03-29T03:40:56.316Z,8.00
2023-03-29T03:41:57.977Z,5.35
2023-03-29T03:42:59.560Z,7.20
2023-03-29T03:44:01.800Z,7.53
2023-03-29T03:45:03.615Z,7.55
2023-03-29T03:46:05.563Z,6.22
2023-03-29T03:47:07.939Z,5.55
2023-03-29T03:48:09.813Z,5.10
2023-03-29T03:49:12.174Z,5.57
2023-03-29T03:50:13.945Z,7.22
2023-03-29T03:51:15.624Z,8.00
2023-03-29T03:52:18.363Z,6.13
2023-03-29T03:53:20.145Z,5.60
2023-03-29T03:54:21.781Z,6.43
2023-03-29T03:55:24.084Z,7.38
2023-03-29T03:56:25.915Z,6.32
2023-03-29T03:57:27.590Z,6.63
2023-03-29T03:58:29.231Z,6.18
2023-03-29T03:59:30.823Z,8.80
2023-03-29T04:00:33.442Z,7.40
2023-03-29T04:01:35.664Z,7.90
2023-03-29T04:02:37.847Z,9.20
2023-03-29T04:03:39.578Z,8.77
2023-03-29T04:04:41.438Z,9.68
2023-03-29T04:05:44.645Z,8.77
2023-03-29T04:06:46.291Z,10.65
2023-03-29T04:07:48.045Z,11.73
2023-03-29T04:08:49.682Z,13.93
2023-03-29T04:09:53.021Z,14.05
2023-03-29T04:10:55.521Z,16.73
2023-03-29T04:11:57.834Z,18.50
2023-03-29T04:13:02.420Z,17.70
2023-03-29T04:14:04.477Z,18.08
2023-03-29T04:15:06.806Z,19.57
2023-03-29T04:16:08.504Z,19.42
2023-03-29T04:17:10.188Z,15.60
2023-03-29T04:18:12.471Z,19.10
2023-03-29T04:19:14.413Z,15.98
2023-03-29T04:20:16.672Z,13.27
2023-03-29T04:21:20.685Z,22.52
2023-03-29T04:22:24.081Z,17.42
2023-03-29T04:23:25.693Z,13.10
2023-03-29T04:24:27.452Z,17.20
2023-03-29T04:25:29.716Z,12.77
2023-03-29T04:26:31.304Z,12.23
2023-03-29T04:27:33.017Z,13.25
2023-03-29T04:28:35.363Z,11.13
2023-03-29T04:29:37.108Z,13.45
2023-03-29T04:30:38.790Z,12.03
2023-03-29T04:31:40.464Z,13.57
2023-03-29T04:32:42.900Z,14.13
2023-03-29T04:33:46.855Z,18.65
2023-03-29T04:34:48.532Z,14.80
2023-03-29T04:35:50.163Z,18.75
2023-03-29T04:36:51.811Z,13.33
2023-03-29T04:37:54.690Z,12.68
2023-03-29T04:38:56.340Z,14.95
2023-03-29T04:40:00.418Z,14.30
2023-03-29T04:41:04.927Z,11.68
2023-03-29T04:42:06.623Z,12.75
2023-03-29T04:43:08.206Z,11.50
2023-03-29T04:44:09.819Z,11.70
2023-03-29T04:45:14.091Z,10.98
2023-03-29T04:46:15.956Z,14.95
2023-03-29T04:47:18.273Z,15.18
2023-03-29T04:48:20.027Z,16.33
2023-03-29T04:49:22.939Z,9.57
2023-03-29T04:50:25.550Z,10.83
2023-03-29T04:51:27.535Z,10.57
2023-03-29T04:52:33.123Z,8.40
2023-03-29T04:53:34.869Z,11.45
2023-03-29T04:54:37.441Z,11.45
2023-03-29T04:55:39.069Z,9.07
2023-03-29T04:56:40.779Z,10.48
2023-03-29T04:57:44.696Z,9.48
2023-03-29T04:58:46.286Z,11.02
2023-03-29T04:59:47.932Z,9.27
2023-03-29T05:00:49.625Z,10.23
2023-03-29T05:01:51.729Z,7.07
2023-03-29T05:02:53.756Z,7.95
2023-03-29T05:03:55.375Z,8.80
2023-03-29T05:04:57.070Z,8.52
2023-03-29T05:06:07.082Z,8.70
2023-03-29T05:07:09.008Z,9.48
2023-03-29T05:08:10.735Z,13.63
2023-03-29T05:09:12.339Z,11.68
2023-03-29T05:10:15.021Z,13.20
2023-03-29T05:11:16.709Z,11.52
2023-03-29T05:12:18.369Z,22.58
2023-03-29T05:13:19.958Z,33.17
2023-03-29T05:14:21.761Z,39.30
2023-03-29T05:15:23.441Z,49.55
2023-03-29T05:16:26.485Z,49.78
2023-03-29T05:17:28.182Z,50.80
2023-03-29T05:18:30.143Z,66.75
2023-03-29T05:19:32.046Z,60.28
2023-03-29T05:20:33.677Z,52.47
2023-03-29T05:21:35.740Z,66.28
2023-03-29T05:22:38.416Z,55.28
2023-03-29T05:23:40.088Z,63.92
2023-03-29T05:24:42.170Z,59.03
2023-03-29T05:25:44.024Z,51.47
2023-03-29T05:26:47.674Z,54.70
2023-03-29T05:27:49.276Z,47.70
2023-03-29T05:28:51.554Z,54.37
2023-03-29T05:29:53.160Z,49.40
2023-03-29T05:31:01.788Z,51.08
2023-03-29T05:32:03.810Z,48.30
2023-03-29T05:33:05.901Z,45.47
2023-03-29T05:34:07.563Z,45.53
2023-03-29T05:35:09.596Z,49.53
2023-03-29T05:36:13.693Z,99.05
2023-03-29T05:37:15.409Z,70.25
2023-03-29T05:38:17.927Z,42.70
2023-03-29T05:39:19.516Z,49.72
2023-03-29T05:40:21.240Z,36.85
2023-03-29T05:41:23.944Z,37.60
2023-03-29T05:42:25.527Z,28.63
2023-03-29T05:43:27.511Z,35.95
2023-03-29T05:44:29.101Z,35.08
2023-03-29T05:45:32.604Z,20.70
2023-03-29T05:46:34.664Z,20.52
2023-03-29T05:47:36.993Z,28.27
2023-03-29T05:48:38.715Z,19.20
2023-03-29T05:49:40.337Z,22.55
2023-03-29T05:50:43.809Z,21.15
2023-03-29T05:51:46.682Z,19.45
2023-03-29T05:52:48.304Z,15.43
2023-03-29T05:53:51.363Z,14.48
2023-03-29T05:54:52.961Z,13.98
2023-03-29T05:55:54.752Z,12.20
2023-03-29T05:56:56.374Z,15.07
2023-03-29T05:57:57.962Z,22.33
2023-03-29T05:58:59.578Z,21.17
2023-03-29T06:00:02.158Z,26.10
2023-03-29T06:01:05.218Z,24.60
2023-03-29T06:02:07.209Z,17.98
2023-03-29T06:03:20.801Z,20.17
2023-03-29T06:04:24.541Z,18.15
2023-03-29T06:05:26.632Z,17.33
2023-03-29T06:06:28.311Z,21.02
2023-03-29T06:07:29.918Z,18.70
2023-03-29T06:08:32.308Z,21.70
2023-03-29T06:09:33.995Z,17.25
2023-03-29T06:10:37.239Z,15.90
2023-03-29T06:11:39.328Z,14.90
2023-03-29T06:12:41.012Z,17.13
2023-03-29T06:13:42.612Z,14.55
2023-03-29T06:14:45.691Z,11.95
2023-03-29T06:15:47.329Z,12.13
2023-03-29T06:16:49.102Z,12.27
2023-03-29T06:17:50.859Z,9.82
2023-03-29T06:18:53.342Z,9.75
2023-03-29T06:19:55.023Z,8.43
2023-03-29T06:20:56.637Z,7.20
2023-03-29T06:21:58.299Z,10.35
2023-03-29T06:22:59.960Z,9.50
2023-03-29T06:24:01.560Z,9.73
2023-03-29T06:25:04.311Z,7.05
2023-03-29T06:26:06.350Z,6.90
2023-03-29T06:27:08.020Z,7.80
2023-03-29T06:28:09.676Z,8.07
2023-03-29T06:29:11.358Z,6.93
2023-03-29T06:30:15.540Z,5.88
2023-03-29T06:31:17.321Z,6.70
2023-03-29T06:32:19.025Z,6.20
2023-03-29T06:33:20.665Z,6.97
2023-03-29T06:34:22.520Z,5.95
2023-03-29T06:35:24.166Z,5.80
2023-03-29T06:36:25.971Z,8.10
2023-03-29T06:37:27.640Z,7.57
2023-03-29T06:38:29.327Z,6.20
2023-03-29T06:39:31.342Z,5.88
2023-03-29T06:40:33.512Z,7.28
2023-03-29T06:41:35.170Z,6.28
2023-03-29T06:42:36.998Z,7.97
2023-03-29T06:43:38.840Z,7.95
2023-03-29T06:44:40.543Z,8.18
2023-03-29T06:45:42.734Z,8.37
2023-03-29T06:46:44.432Z,7.85
2023-03-29T06:47:46.371Z,8.35
2023-03-29T06:48:48.367Z,8.00
2023-03-29T06:49:50.035Z,9.52
2023-03-29T06:50:52.356Z,8.43
2023-03-29T06:51:54.102Z,8.88
2023-03-29T06:52:56.440Z,6.97
2023-03-29T06:53:58.088Z,8.55
2023-03-29T06:55:02.120Z,8.20
2023-03-29T06:56:09.188Z,6.73
2023-03-29T06:57:13.326Z,6.50
2023-03-29T06:58:15.500Z,7.72
2023-03-29T06:59:17.824Z,7.93
2023-03-29T07:00:27.856Z,7.78
2023-03-29T07:01:29.661Z,6.40
2023-03-29T07:02:31.884Z,7.78
2023-03-29T07:03:35.382Z,7.45
2023-03-29T07:04:37.089Z,7.03
2023-03-29T07:05:42.111Z,8.60
2023-03-29T07:06:48.430Z,7.10
2023-03-29T07:07:55.946Z,8.13
2023-03-29T07:08:59.847Z,7.75
2023-03-29T07:10:01.941Z,5.88
2023-03-29T07:11:03.993Z,7.63
2023-03-29T07:12:05.989Z,6.80
2023-03-29T07:13:08.843Z,10.43
2023-03-29T07:14:10.721Z,6.85
2023-03-29T07:15:12.329Z,8.05
2023-03-29T07:16:14.135Z,7.05
2023-03-29T07:17:16.791Z,5.67
2023-03-29T07:18:18.873Z,5.47
2023-03-29T07:19:22.745Z,6.45
2023-03-29T07:20:25.115Z,5.10
2023-03-29T07:21:27.038Z,6.80
2023-03-29T07:22:28.641Z,5.70
2023-03-29T07:23:30.523Z,5.43
2023-03-29T07:24:32.097Z,5.70
2023-03-29T07:25:34.387Z,6.03
2023-03-29T07:26:35.997Z,5.88
2023-03-29T07:27:37.916Z,7.20
2023-03-29T07:28:39.840Z,6.20
2023-03-29T07:29:41.559Z,8.05
2023-03-29T07:30:43.170Z,4.85
2023-03-29T07:31:46.113Z,8.25
2023-03-29T07:32:48.178Z,7.47
2023-03-29T07:33:52.645Z,5.05
2023-03-29T07:34:54.652Z,8.52
2023-03-29T07:35:57.330Z,5.65
2023-03-29T07:36:59.374Z,5.68
2023-03-29T07:38:01.042Z,5.70
2023-03-29T07:39:03.600Z,4.72
2023-03-29T07:40:12.518Z,5.10
2023-03-29T07:41:14.104Z,5.47
2023-03-29T07:42:15.778Z,5.60
2023-03-29T07:43:18.341Z,4.82
2023-03-29T07:44:21.627Z,5.72
2023-03-29T07:45:26.493Z,6.20
2023-03-29T07:46:29.476Z,5.60
2023-03-29T07:47:31.539Z,5.03
2023-03-29T07:48:33.942Z,5.37
2023-03-29T07:49:35.605Z,5.38
2023-03-29T07:50:37.197Z,6.22
2023-03-29T07:51:38.953Z,6.28
2023-03-29T07:52:40.962Z,5.35
2023-03-29T07:53:43.077Z,6.25
2023-03-29T07:54:44.664Z,6.70
2023-03-29T07:55:49.842Z,6.75
2023-03-29T07:56:51.535Z,7.78
2023-03-29T07:57:53.671Z,5.70
2023-03-29T07:58:55.283Z,5.50
2023-03-29T07:59:57.012Z,6.05
2023-03-29T08:01:00.425Z,5.53
2023-03-29T08:02:02.475Z,4.15
2023-03-29T08:03:04.352Z,9.43
2023-03-29T08:04:06.135Z,4.97
2023-03-29T08:05:08.282Z,5.60
2023-03-29T08:06:10.064Z,6.53
2023-03-29T08:07:12.624Z,10.73
2023-03-29T08:08:14.317Z,5.25
2023-03-29T08:09:16.436Z,6.03
2023-03-29T08:10:19.220Z,5.93
2023-03-29T08:11:21.100Z,6.38
2023-03-29T08:12:24.982Z,8.93
2023-03-29T08:13:26.803Z,11.52
2023-03-29T08:14:28.866Z,10.35
2023-03-29T08:15:30.691Z,9.20
2023-03-29T08:16:32.616Z,11.05
2023-03-29T08:17:35.389Z,6.80
2023-03-29T08:18:37.028Z,6.20
2023-03-29T08:19:38.625Z,6.27
2023-03-29T08:20:40.310Z,5.32
2023-03-29T08:21:41.935Z,7.57
2023-03-29T08:22:43.629Z,5.03
2023-03-29T08:23:45.308Z,7.15
2023-03-29T08:24:47.096Z,7.57
2023-03-29T08:25:48.740Z,6.47
2023-03-29T08:26:50.494Z,5.68
2023-03-29T08:27:52.143Z,5.38
2023-03-29T08:28:53.783Z,4.60
2023-03-29T08:29:55.494Z,6.10
2023-03-29T08:30:57.273Z,5.95
2023-03-29T08:31:58.997Z,4.20
2023-03-29T08:33:01.328Z,5.50
2023-03-29T08:34:03.275Z,5.63
2023-03-29T08:35:06.757Z,4.28
2023-03-29T08:36:08.813Z,5.25
2023-03-29T08:37:11.119Z,4.95
2023-03-29T08:38:12.779Z,4.65
2023-03-29T08:39:14.474Z,5.80
2023-03-29T08:40:24.386Z,5.73
2023-03-29T08:41:41.121Z,6.50
2023-03-29T08:42:58.212Z,5.00
2023-03-29T08:44:17.898Z,6.00
2023-03-29T08:45:45.673Z,7.72
2023-03-29T08:46:49.754Z,5.38
2023-03-29T08:47:57.374Z,4.82
2023-03-29T08:49:03.745Z,6.22
2023-03-29T08:50:05.704Z,5.30
2023-03-29T08:51:31.789Z,7.63
2023-03-29T08:52:40.477Z,4.27
2023-03-29T08:53:45.258Z,4.70
2023-03-29T08:54:47.398Z,5.57
2023-03-29T08:55:49.279Z,5.22
2023-03-29T08:56:51.426Z,7.20
2023-03-29T08:57:53.196Z,7.18
2023-03-29T08:58:55.370Z,5.13
2023-03-29T08:59:58.568Z,5.30
2023-03-29T09:01:01.095Z,5.03
2023-03-29T09:02:04.842Z,5.78
2023-03-29T09:03:15.993Z,4.77
2023-03-29T09:04:20.216Z,4.68
2023-03-29T09:05:28.167Z,4.75
2023-03-29T09:06:29.817Z,5.80
2023-03-29T09:07:31.435Z,4.53
2023-03-29T09:08:35.034Z,4.47
2023-03-29T09:09:37.746Z,6.28
2023-03-29T09:11:02.681Z,5.32
2023-03-29T09:12:07.395Z,5.28
2023-03-29T09:13:19.953Z,4.15
2023-03-29T09:14:58.802Z,4.97
2023-03-29T09:16:09.663Z,4.53
2023-03-29T09:17:39.090Z,7.13
2023-03-29T09:18:48.595Z,5.70
2023-03-29T09:20:27.922Z,6.60
2023-03-29T09:21:46.769Z,4.75
2023-03-29T09:22:57.758Z,7.70
2023-03-29T09:24:04.566Z,5.47
2023-03-29T09:25:25.926Z,8.30
2023-03-29T09:26:50.443Z,6.65
2023-03-29T09:28:01.514Z,3.93
2023-03-29T09:29:41.431Z,5.25
2023-03-29T09:31:02.642Z,5.88
2023-03-29T09:32:06.781Z,5.07
2023-03-29T09:33:17.460Z,4.15
2023-03-29T09:34:31.913Z,4.60
2023-03-29T09:35:43.815Z,4.45
2023-03-29T09:36:52.528Z,4.40
2023-03-29T09:37:54.617Z,6.25
2023-03-29T09:38:56.414Z,4.13
2023-03-29T09:39:58.201Z,4.13
2023-03-29T09:41:04.736Z,2.83
2023-03-29T09:42:11.977Z,6.57
2023-03-29T09:43:15.929Z,3.10
2023-03-29T09:44:31.580Z,5.25
2023-03-29T09:45:38.587Z,5.40
2023-03-29T09:46:53.870Z,5.10
2023-03-29T09:48:00.369Z,5.57
2023-03-29T09:49:02.212Z,5.22
2023-03-29T09:50:35.350Z,5.20
2023-03-29T09:51:36.948Z,4.17
2023-03-29T09:52:38.546Z,4.07
2023-03-29T09:53:40.361Z,4.35
2023-03-29T09:54:42.011Z,4.22
2023-03-29T09:55:43.706Z,3.45
2023-03-29T09:56:45.583Z,4.45
2023-03-29T09:57:47.338Z,4.47
2023-03-29T09:58:48.964Z,5.43
2023-03-29T09:59:51.395Z,3.55
2023-03-29T10:00:53.221Z,4.43
2023-03-29T10:01:55.276Z,5.40
2023-03-29T10:02:57.895Z,3.67
2023-03-29T10:03:59.941Z,3.55
2023-03-29T10:05:04.592Z,4.25
2023-03-29T10:06:07.221Z,4.53
2023-03-29T10:07:19.155Z,4.88
2023-03-29T10:08:27.076Z,4.55
2023-03-29T10:09:29.096Z,5.85
2023-03-29T10:10:32.539Z,5.20
2023-03-29T10:11:37.124Z,4.38
2023-03-29T10:12:38.741Z,5.27
2023-03-29T10:13:44.800Z,4.22
2023-03-29T10:14:49.466Z,6.05
2023-03-29T10:16:19.999Z,4.28
2023-03-29T10:17:25.958Z,3.63
2023-03-29T10:18:27.740Z,4.43
2023-03-29T10:19:33.048Z,4.05
2023-03-29T10:20:36.290Z,6.60
2023-03-29T10:21:37.881Z,4.35
2023-03-29T10:22:41.216Z,4.15
2023-03-29T10:23:43.025Z,3.93
2023-03-29T10:24:52.210Z,4.70
2023-03-29T10:25:53.819Z,4.35
2023-03-29T10:26:58.370Z,4.57
2023-03-29T10:28:06.148Z,4.25
2023-03-29T10:29:08.357Z,6.25
2023-03-29T10:30:23.183Z,5.05
2023-03-29T10:31:24.810Z,6.07
2023-03-29T10:32:36.817Z,5.10
2023-03-29T10:33:38.552Z,5.60
2023-03-29T10:34:40.176Z,4.37
2023-03-29T10:35:42.112Z,5.75
2023-03-29T10:37:01.262Z,4.80
2023-03-29T10:38:04.584Z,4.68
2023-03-29T10:39:06.501Z,5.25
2023-03-29T10:40:22.566Z,6.00
2023-03-29T10:41:24.289Z,4.47
2023-03-29T10:42:26.189Z,5.78
2023-03-29T10:43:32.809Z,6.65
2023-03-29T10:44:37.748Z,4.88
2023-03-29T10:45:39.542Z,5.50
2023-03-29T10:46:42.536Z,4.25
2023-03-29T10:47:45.429Z,5.68
2023-03-29T10:48:49.408Z,4.43
2023-03-29T10:49:58.906Z,4.43
2023-03-29T10:51:01.370Z,4.57
2023-03-29T10:52:04.364Z,3.83
2023-03-29T10:53:26.383Z,4.50
2023-03-29T10:54:28.588Z,6.82
2023-03-29T10:55:37.672Z,6.47
2023-03-29T10:56:41.457Z,5.03
2023-03-29T10:57:57.689Z,3.85
2023-03-29T10:59:17.468Z,5.20
2023-03-29T11:00:23.470Z,5.78
2023-03-29T11:01:58.457Z,5.00
2023-03-29T11:03:22.778Z,3.70
2023-03-29T11:04:49.071Z,4.88
2023-03-29T11:06:07.848Z,4.65
2023-03-29T11:07:22.764Z,5.30
2023-03-29T11:08:31.872Z,5.32
2023-03-29T11:10:00.298Z,4.90
2023-03-29T11:11:05.667Z,4.65
2023-03-29T11:12:16.165Z,6.50
2023-03-29T11:13:35.134Z,5.20
2023-03-29T11:14:45.707Z,5.35
2023-03-29T11:15:56.497Z,4.35
2023-03-29T11:17:16.937Z,4.30
2023-03-29T11:18:44.120Z,4.95
2023-03-29T11:19:56.667Z,4.82
2023-03-29T11:21:10.737Z,5.20
2023-03-29T11:22:31.267Z,5.13
2023-03-29T11:23:46.153Z,6.82
2023-03-29T11:25:08.916Z,5.38
2023-03-29T11:26:32.325Z,5.50
2023-03-29T11:27:57.805Z,6.22
2023-03-29T11:29:21.738Z,5.20
2023-03-29T11:30:29.146Z,6.03
2023-03-29T11:31:39.412Z,6.18
2023-03-29T11:33:18.333Z,5.60
2023-03-29T11:34:29.853Z,5.43
2023-03-29T11:35:47.356Z,5.43
2023-03-29T11:36:51.890Z,6.45
2023-03-29T11:37:53.989Z,5.85
2023-03-29T11:39:16.113Z,5.95
2023-03-29T11:40:39.332Z,5.75
2023-03-29T11:41:43.290Z,7.50
2023-03-29T11:42:46.389Z,6.47
2023-03-29T11:44:17.776Z,8.40
2023-03-29T11:45:26.298Z,7.38
2023-03-29T11:46:33.998Z,4.90
2023-03-29T11:47:37.376Z,5.17
2023-03-29T11:48:44.113Z,6.90
2023-03-29T11:49:53.154Z,6.97
2023-03-29T11:51:16.971Z,7.28
2023-03-29T11:52:24.490Z,4.28
2023-03-29T11:53:37.804Z,7.20
2023-03-29T11:54:45.785Z,8.65
2023-03-29T11:55:48.227Z,8.82
2023-03-29T11:57:27.549Z,8.60
2023-03-29T11:58:36.642Z,6.43
2023-03-29T11:59:43.417Z,5.57
2023-03-29T12:00:55.373Z,5.47
2023-03-29T12:02:12.798Z,5.70
2023-03-29T12:03:28.549Z,4.40
2023-03-29T12:04:32.778Z,6.07
2023-03-29T12:05:50.407Z,12.02
2023-03-29T12:07:24.176Z,4.90
2023-03-29T12:08:30.693Z,6.10
2023-03-29T12:09:50.524Z,6.28
2023-03-29T12:11:04.508Z,4.63
2023-03-29T12:12:10.081Z,5.13
2023-03-29T12:13:14.497Z,5.90
2023-03-29T12:14:22.924Z,7.72
2023-03-29T12:15:26.364Z,8.35
2023-03-29T12:16:34.149Z,5.75
2023-03-29T12:17:42.108Z,7.10
2023-03-29T12:18:46.278Z,8.98
2023-03-29T12:19:59.212Z,6.55
2023-03-29T12:21:03.222Z,8.43
2023-03-29T12:22:07.912Z,5.18
2023-03-29T12:23:12.929Z,5.20
2023-03-29T12:24:16.171Z,7.47
2023-03-29T12:25:22.763Z,6.40
2023-03-29T12:26:43.788Z,4.50
2023-03-29T12:28:08.945Z,6.78
2023-03-29T12:29:21.041Z,5.50
2023-03-29T12:31:04.270Z,6.25
2023-03-29T12:32:06.311Z,5.30
2023-03-29T12:33:19.735Z,6.53
2023-03-29T12:34:51.961Z,7.78
2023-03-29T12:36:15.021Z,5.13
2023-03-29T12:37:40.692Z,6.55
2023-03-29T12:38:42.854Z,6.55
2023-03-29T12:39:44.553Z,4.90
2023-03-29T12:40:47.606Z,7.30
2023-03-29T12:41:51.820Z,8.73
2023-03-29T12:42:56.931Z,5.85
2023-03-29T12:44:02.057Z,5.50
2023-03-29T12:45:03.906Z,6.75
2023-03-29T12:46:09.544Z,7.95
2023-03-29T12:47:21.678Z,6.97
2023-03-29T12:48:27.674Z,7.88
2023-03-29T12:49:33.810Z,6.95
2023-03-29T12:50:54.782Z,6.68
2023-03-29T12:51:57.513Z,6.93
2023-03-29T12:53:05.796Z,9.02
2023-03-29T12:54:10.321Z,5.82
2023-03-29T12:55:32.297Z,6.85
2023-03-29T12:56:41.440Z,5.22
2023-03-29T12:58:07.302Z,5.10
2023-03-29T12:59:11.669Z,6.50
2023-03-29T13:00:23.143Z,6.03
2023-03-29T13:01:28.910Z,6.88
2023-03-29T13:02:35.382Z,7.03
2023-03-29T13:03:40.364Z,7.57
2023-03-29T13:04:58.238Z,6.25
2023-03-29T13:06:02.616Z,6.15
2023-03-29T13:07:05.817Z,5.15
2023-03-29T13:08:26.425Z,8.93
2023-03-29T13:09:47.801Z,7.28
2023-03-29T13:10:53.589Z,6.63
2023-03-29T13:12:04.196Z,6.43
2023-03-29T13:13:17.376Z,6.07
2023-03-29T13:14:20.295Z,5.90
2023-03-29T13:15:23.670Z,7.15
2023-03-29T13:16:33.216Z,6.10
2023-03-29T13:17:48.151Z,5.93
2023-03-29T13:19:03.650Z,5.85
2023-03-29T13:20:14.585Z,7.18
2023-03-29T13:21:23.749Z,5.13
2023-03-29T13:22:43.951Z,8.57
2023-03-29T13:24:21.035Z,6.57
2023-03-29T13:25:46.986Z,4.75
2023-03-29T13:26:59.687Z,5.97
2023-03-29T13:28:20.030Z,7.22
2023-03-29T13:29:39.930Z,6.18
2023-03-29T13:31:11.709Z,6.25
2023-03-29T13:32:22.266Z,4.40
2023-03-29T13:33:48.786Z,6.55
2023-03-29T13:35:02.265Z,7.40
2023-03-29T13:36:41.751Z,6.60
2023-03-29T13:37:55.913Z,6.90
2023-03-29T13:39:01.684Z,5.28
2023-03-29T13:40:23.449Z,5.35
2023-03-29T13:41:33.518Z,7.30
2023-03-29T13:42:35.536Z,8.82
2023-03-29T13:43:49.821Z,5.93
2023-03-29T13:44:52.149Z,5.93
2023-03-29T13:45:56.683Z,6.18
2023-03-29T13:47:32.462Z,6.63
2023-03-29T13:48:37.705Z,6.27
2023-03-29T13:49:39.476Z,7.05
2023-03-29T13:50:52.415Z,6.70
2023-03-29T13:51:54.001Z,8.90
2023-03-29T13:53:20.862Z,5.53
2023-03-29T13:54:27.284Z,7.45
2023-03-29T13:55:34.415Z,5.75
2023-03-29T13:57:02.017Z,8.18
2023-03-29T13:58:15.990Z,6.38
2023-03-29T13:59:23.938Z,6.90
2023-03-29T14:00:41.202Z,5.43
2023-03-29T14:01:50.656Z,5.38
2023-03-29T14:02:55.359Z,7.70
2023-03-29T14:03:57.320Z,5.35
2023-03-29T14:05:00.062Z,6.78
2023-03-29T14:06:02.221Z,8.02
2023-03-29T14:07:04.109Z,7.82
2023-03-29T14:08:26.781Z,5.60
2023-03-29T14:09:32.545Z,4.65
2023-03-29T14:10:44.232Z,7.18
2023-03-29T14:11:45.933Z,9.17
2023-03-29T14:12:47.575Z,7.80
2023-03-29T14:13:52.733Z,6.82
2023-03-29T14:14:59.193Z,4.60
2023-03-29T14:16:11.369Z,8.95
2023-03-29T14:17:21.190Z,7.03
2023-03-29T14:18:23.750Z,5.22
2023-03-29T14:19:36.229Z,8.43
2023-03-29T14:20:37.954Z,8.13
2023-03-29T14:21:40.974Z,5.57
2023-03-29T14:22:42.653Z,7.53
2023-03-29T14:23:46.665Z,7.60
2023-03-29T14:24:52.122Z,6.28
2023-03-29T14:25:53.832Z,4.78
2023-03-29T14:26:55.490Z,6.80
2023-03-29T14:27:57.103Z,4.85
2023-03-29T14:29:01.248Z,4.85
2023-03-29T14:30:17.493Z,5.57
2023-03-29T14:31:26.349Z,16.90
2023-03-29T14:32:29.423Z,8.25
2023-03-29T14:33:34.607Z,4.53
2023-03-29T14:34:36.347Z,6.20
2023-03-29T14:35:38.220Z,6.93
2023-03-29T14:36:40.141Z,6.32
2023-03-29T14:37:41.815Z,9.40
2023-03-29T14:38:45.657Z,5.20